WetterOnline ( https://www.wetteronline.de )

Wetter aktuell Klingenthal

Aktuelles Wetter: Carlsfeld (899m)

6-stündlich | Neueste Meldungen
Ortszeit Temperatur Wetter
So, 09.05. 20:00 18.2° C wolkig
So, 09.05. 14:00 19.4° C fast wolkenlos
So, 09.05. 8:00 9.6° C bedeckt
So, 09.05. 2:00 6.3° C wolkenlos
Sa, 08.05. 20:00 8.4° C bewölkt
Sa, 08.05. 14:00 7.8° C wolkig
Sa, 08.05. 8:00 0.5° C wolkig
Sa, 08.05. 2:00 -1.8° C wolkenlos
Ortszeit Temperatur Wetter
Mo, 10.05. 1:30 13.3° C wolkig
Mo, 10.05. 1:20 13.3° C wolkig
Mo, 10.05. 1:10 13.5° C wolkig
Mo, 10.05. 1:00 13.7° C bewölkt
Mo, 10.05. 0:50 13.7° C bewölkt
Mo, 10.05. 0:40 13.7° C bedeckt
Mo, 10.05. 0:30 14.0° C bedeckt
Mo, 10.05. 0:00 14.4° C bedeckt
Ortszeit Relative Feuchte Sichtweite
So, 09.05. 20:00 48% >70 km
So, 09.05. 14:00 45% 60 km
So, 09.05. 8:00 57% >70 km
So, 09.05. 2:00 65% 65 km
Sa, 08.05. 20:00 56% 65 km
Sa, 08.05. 14:00 49% 45 km
Sa, 08.05. 8:00 90% 30 km
Sa, 08.05. 2:00 96% 13 km
Ortszeit Relative Feuchte Sichtweite
Mo, 10.05. 1:30 60% 60 km
Mo, 10.05. 1:20 60% -
Mo, 10.05. 1:10 60% -
Mo, 10.05. 1:00 59% 60 km
Mo, 10.05. 0:50 59% -
Mo, 10.05. 0:40 59% -
Mo, 10.05. 0:30 58% 65 km
Mo, 10.05. 0:00 56% >70 km
Ortszeit Niederschlagsmenge Niederschlagsart
So, 09.05. 20:00 0.0 l/m2 in 12 Std. -
So, 09.05. 14:00 0.0 l/m2 in 6 Std. -
So, 09.05. 8:00 0.0 l/m2 in 12 Std. -
So, 09.05. 2:00 0.0 l/m2 in 6 Std. -
Sa, 08.05. 20:00 0.0 l/m2 in 12 Std. -
Sa, 08.05. 14:00 0.0 l/m2 in 6 Std. -
Sa, 08.05. 8:00 0.0 l/m2 in 12 Std. -
Sa, 08.05. 2:00 0.0 l/m2 in 6 Std. -
Ortszeit Niederschlagsmenge Niederschlagsart
Mo, 10.05. 1:30 0.0 l/m2 in 1 Std. -
Mo, 10.05. 1:20 keine Meldung -
Mo, 10.05. 1:10 keine Meldung -
Mo, 10.05. 1:00 0.0 l/m2 in 1 Std. -
Mo, 10.05. 0:50 keine Meldung -
Mo, 10.05. 0:40 keine Meldung -
Mo, 10.05. 0:30 0.0 l/m2 in 1 Std. -
Mo, 10.05. 0:00 0.0 l/m2 in 1 Std. -
Ortszeit Stärke Spitze Richtung
km/h Bft. km/h Grad Sektor
So, 09.05. 20:00 11 2 37 170° S
So, 09.05. 14:00 14 3 40 210° SW
So, 09.05. 8:00 14 3 29 220° SW
So, 09.05. 2:00 11 2 25 220° SW
Sa, 08.05. 20:00 9 2 31 200° S
Sa, 08.05. 14:00 14 3 29 220° SW
Sa, 08.05. 8:00 7 2 18 230° SW
Sa, 08.05. 2:00 2 1 22 90° O
Ortszeit Stärke Spitze Richtung
km/h Bft. km/h Grad Sektor
Mo, 10.05. 1:30 11 2 25 180° S
Mo, 10.05. 1:20 11 2 - 180° S
Mo, 10.05. 1:10 14 3 - 180° S
Mo, 10.05. 1:00 14 3 29 170° S
Mo, 10.05. 0:50 14 3 - 170° S
Mo, 10.05. 0:40 14 3 - 170° S
Mo, 10.05. 0:30 11 2 24 180° S
Mo, 10.05. 0:00 11 2 29 170° S
Ortszeit Untergrenze Bedeckung Gattung
total tief tief mittel hoch
So, 09.05. 20:00 9000 m 8/8 0/8 - - -
So, 09.05. 14:00 10500 m 2/8 0/8 - - -
So, 09.05. 8:00 6600 m 8/8 8/8 - - -
So, 09.05. 2:00 - 0/8 0/8 - - -
Sa, 08.05. 20:00 2400 m 8/8 5/8 - - -
Sa, 08.05. 14:00 1470 m 7/8 4/8 - - -
Sa, 08.05. 8:00 1320 m 5/8 5/8 - - -
Sa, 08.05. 2:00 - 0/8 0/8 - - -
Ortszeit Bedeckungsgrad in Achtel und Wolkenuntergrenze
Mo, 10.05. 1:30 7(7500m) 7(8700m) 8(9000m)
Mo, 10.05. 1:20 7(7500m) 7(8700m) 8(9000m)
Mo, 10.05. 1:10 8(7200m) 8(9000m) 8(9000m)
Mo, 10.05. 1:00 6(6900m) 8(7500m) 8(9000m)
Mo, 10.05. 0:50 6(6900m) 8(7500m) 8(9000m)
Mo, 10.05. 0:40 8(6900m) 8(9000m)
Mo, 10.05. 0:30 8(6600m)
Mo, 10.05. 0:00 8(6900m) 8(7800m) 8(8400m)
Ortszeit Stationsdruck (hPa) Tendenz (hPa in 3 Std.)
So, 09.05. 20:00 908 - 1,0
So, 09.05. 14:00 911 - 0,8
So, 09.05. 8:00 911 0,0
So, 09.05. 2:00 912 + 0,1
Sa, 08.05. 20:00 912 - 1,0
Sa, 08.05. 14:00 914 - 0,9
Sa, 08.05. 8:00 915 + 0,6
Sa, 08.05. 2:00 914 + 1,1
Ortszeit Stationsdruck (hPa) Tendenz (hPa in 3 Std.)
Mo, 10.05. 1:30 907 - 0,9
Mo, 10.05. 1:20 907 keine Meldung
Mo, 10.05. 1:10 907 keine Meldung
Mo, 10.05. 1:00 907 - 0,8
Mo, 10.05. 0:50 907 keine Meldung
Mo, 10.05. 0:40 908 keine Meldung
Mo, 10.05. 0:30 908 - 0,6
Mo, 10.05. 0:00 908 - 0,4
Ortszeit Schneehöhe (cm)
So, 09.05. 20:00 0
So, 09.05. 14:00 0
So, 09.05. 8:00 0
So, 09.05. 2:00 0
Sa, 08.05. 20:00 0
Sa, 08.05. 14:00 0
Sa, 08.05. 8:00 0
Sa, 08.05. 2:00 0
Ortszeit Schneehöhe (cm)
Mo, 10.05. 1:30 0
Mo, 10.05. 1:20 0
Mo, 10.05. 1:10 0
Mo, 10.05. 1:00 0
Mo, 10.05. 0:50 0
Mo, 10.05. 0:40 0
Mo, 10.05. 0:30 0
Mo, 10.05. 0:00 0
Link zu dieser Seite / Seite empfehlen

Das Wetter in ...